»·PEaware :: N101WS KSBP-KSBA

N101WS :: KSBP-KSBA

FLIGHT INFORMATION

Flight Status: Arrived
Operator: Privately registered:
United States
More flights under this callsign
Pilot: Mark K. (33451)
Aircraft: CESSNA 172 SKYHAWK
(C172)
More flights by this aircraft type
Origin: KSBP San Luis Co Regl
United States
Destination: KSBA Santa Barbara Mun
United States
More flights between these airports :: More routes between these airports
Route: GVO
File this flight plan on PilotEdge
Remarks: REQ CREPE 3 DEP MQO TRANS - GPS RNAV RWY 11 VECTORS TO AFOXY
Altitude:
(Current/Filed)
5,000ft
Speed:
(Current/Filed)
105kts
Departed: 02-Feb-21 10:38 PM
Arrived: 02-Feb-21 11:22 PM
Distance/Time
Traveled:
62nm/0:43
Distance/Time
To Go:
Arrived

Flight Plot

Page will automatically refresh every two minutes.


Map Options




Map Legend


Flown Route
Filed Route
Departure Airport
Arrival Airport
Navaid (VOR, NDB)
Fix

Horizontal Profiles

Position Reports

Time Latitude Longitude Heading Altitude Ground
Speed
02-Feb-21 22:25 35.238248 -120.639994 308 216ft 0kts
02-Feb-21 22:26 35.238248 -120.639994 308 216ft 0kts
02-Feb-21 22:27 35.238248 -120.639994 308 216ft 0kts
02-Feb-21 22:28 35.238248 -120.639994 308 216ft 0kts
02-Feb-21 22:29 35.238248 -120.639994 308 216ft 0kts
02-Feb-21 22:30 35.238248 -120.639994 308 216ft 0kts
02-Feb-21 22:31 35.238248 -120.639994 308 216ft 0kts
02-Feb-21 22:32 35.238248 -120.639994 308 216ft 0kts
02-Feb-21 22:33 35.237988 -120.640390 120 216ft 12kts
02-Feb-21 22:34 35.236574 -120.637765 124 216ft 20kts
02-Feb-21 22:35 35.233623 -120.632592 124 216ft 15kts
02-Feb-21 22:36 35.232802 -120.632955 278 216ft 15kts
02-Feb-21 22:37 35.240660 -120.650272 298 828ft 80kts
02-Feb-21 22:38 35.253878 -120.673490 302 1763ft 97kts
02-Feb-21 22:39 35.269730 -120.703420 302 2473ft 109kts
02-Feb-21 22:40 35.286822 -120.734173 305 3174ft 109kts
02-Feb-21 22:41 35.278753 -120.757957 174 3868ft 107kts
02-Feb-21 22:42 35.249690 -120.752330 158 4567ft 105kts
02-Feb-21 22:43 35.225131 -120.733722 143 5267ft 103kts
02-Feb-21 22:44 35.202547 -120.712868 142 5965ft 100kts
02-Feb-21 22:45 35.180608 -120.692349 142 6664ft 97kts
02-Feb-21 22:46 35.158753 -120.671907 142 7063ft 120kts
02-Feb-21 22:47 35.127700 -120.643005 142 6113ft 139kts
02-Feb-21 22:48 35.098724 -120.615981 142 5195ft 122kts
02-Feb-21 22:49 35.074819 -120.593648 142 4989ft 93kts
02-Feb-21 22:50 35.052137 -120.572429 142 5013ft 123kts
02-Feb-21 22:51 35.023651 -120.545912 142 5018ft 130kts
02-Feb-21 22:52 34.994681 -120.518954 142 5019ft 131kts
02-Feb-21 22:53 34.965520 -120.491842 142 5019ft 131kts
02-Feb-21 22:54 34.936484 -120.464869 142 5019ft 131kts
02-Feb-21 22:55 34.907340 -120.437822 142 5019ft 131kts
02-Feb-21 22:56 34.878273 -120.410873 142 5019ft 131kts
02-Feb-21 22:57 34.849027 -120.383780 142 5019ft 131kts
02-Feb-21 22:58 34.819958 -120.356875 142 5019ft 131kts
02-Feb-21 22:59 34.790822 -120.329910 142 5018ft 131kts
02-Feb-21 23:00 34.761611 -120.302914 142 5018ft 131kts
02-Feb-21 23:01 34.732404 -120.275973 142 5018ft 131kts
02-Feb-21 23:02 34.703282 -120.249134 142 5018ft 131kts
02-Feb-21 23:03 34.674081 -120.222231 142 5018ft 131kts
02-Feb-21 23:04 34.644897 -120.195367 142 5018ft 131kts
02-Feb-21 23:05 34.615761 -120.168573 142 5018ft 131kts
02-Feb-21 23:06 34.586592 -120.141771 142 5018ft 131kts
02-Feb-21 23:07 34.557428 -120.114999 142 5018ft 131kts
02-Feb-21 23:08 34.530114 -120.086271 122 4887ft 126kts
02-Feb-21 23:09 34.498862 -120.082385 187 4398ft 110kts
02-Feb-21 23:10 34.472329 -120.085073 183 3779ft 88kts
02-Feb-21 23:11 34.445692 -120.087137 183 3115ft 107kts
02-Feb-21 23:12 34.424219 -120.071272 99 2640ft 97kts
02-Feb-21 23:13 34.427107 -120.042035 33 2385ft 92kts
02-Feb-21 23:14 34.450190 -120.036361 71 1980ft 97kts
02-Feb-21 23:15 34.440321 -120.006428 118 1643ft 92kts
02-Feb-21 23:16 34.428779 -119.980663 118 1635ft 85kts
02-Feb-21 23:17 34.425400 -119.952165 88 1637ft 101kts
02-Feb-21 23:18 34.426144 -119.917648 88 1169ft 103kts
02-Feb-21 23:19 34.426960 -119.883367 87 574ft 90kts
02-Feb-21 23:20 34.427413 -119.859877 88 156ft 66kts
02-Feb-21 23:21 34.426493 -119.847419 270 14ft 19kts
02-Feb-21 23:22 34.426401 -119.853080 268 14ft 0kts
02-Feb-21 23:23 34.426401 -119.853080 268 14ft 0kts
02-Feb-21 23:24 34.426401 -119.853080 268 14ft 0kts
02-Feb-21 23:25 34.426401 -119.853080 268 14ft 0kts
02-Feb-21 23:26 34.426401 -119.853080 268 14ft 0kts
02-Feb-21 23:27 34.426401 -119.853080 268 14ft 0kts
02-Feb-21 23:28 34.426401 -119.853080 268 14ft 0kts
02-Feb-21 23:29 34.426401 -119.853080 268 14ft 0kts
02-Feb-21 23:30 34.426401 -119.853080 268 14ft 0kts
02-Feb-21 23:31 34.426401 -119.853080 268 14ft 0kts
02-Feb-21 23:32 34.426401 -119.853080 268 14ft 0kts
02-Feb-21 23:33 34.426401 -119.853080 268 14ft 0kts
02-Feb-21 23:34 34.426401 -119.853080 268 14ft 0kts
02-Feb-21 23:35 34.426401 -119.853080 268 14ft 0kts

Navigation Log

Ident Type
Flight plan parsing failed, navigation log unavailable